Forest River, North Dakota
Current Conditions -  °F | °C
As of 7:55 AM on Monday 24 Nov 2014 (Local Time) from KGAF Reporting Station
Haze Haze  
Wind Chill: -18°   Ceiling: 1500
Heat Index:   Visibility: 5mi
Dew Point:   Wind: 25mph
Humidity: 78%   Direction: 340°NNW
Pressure: 29.74"   Gusts: 37mph
Location:  48.22°N, 97.47°W
Report Text: KGAF 241355Z AUTO 34022G32KT 5SM BR OVC015 M15/M18 A2974 RMK AO2
Loading
Personal Weather Stations






























Interactive Weather Map New forecast layout! Learn more

10-Day Weather Forecast

Advertisements
Track Severe Weather on mobile